createdAt,value
2023-02-22T00:00:19.509Z,57.31
2023-02-22T00:03:41.706Z,57.30
2023-02-22T00:06:45.410Z,57.26
2023-02-22T00:09:47.598Z,57.30
2023-02-22T00:12:50.604Z,57.36
2023-02-22T00:15:52.779Z,57.47
2023-02-22T00:18:54.863Z,57.41
2023-02-22T00:21:58.076Z,57.42
2023-02-22T00:25:00.021Z,57.49
2023-02-22T00:28:03.745Z,57.45
2023-02-22T00:31:07.609Z,57.46
2023-02-22T00:34:09.857Z,57.51
2023-02-22T00:37:11.842Z,57.43
2023-02-22T00:40:17.988Z,57.35
2023-02-22T00:43:19.800Z,57.40
2023-02-22T00:46:23.197Z,57.37
2023-02-22T00:49:28.078Z,57.36
2023-02-22T00:52:30.186Z,57.44
2023-02-22T00:55:35.096Z,57.31
2023-02-22T00:58:37.248Z,57.46
2023-02-22T01:01:39.175Z,57.47
2023-02-22T01:04:41.540Z,57.54
2023-02-22T01:07:44.041Z,57.56
2023-02-22T01:10:46.683Z,57.41
2023-02-22T01:13:48.612Z,57.49
2023-02-22T01:16:51.029Z,57.50
2023-02-22T01:19:54.101Z,57.47
2023-02-22T01:22:59.645Z,57.52
2023-02-22T01:26:02.876Z,57.51
2023-02-22T01:29:05.011Z,57.43
2023-02-22T01:32:07.354Z,57.60
2023-02-22T01:35:14.307Z,57.62
2023-02-22T01:38:17.288Z,57.58
2023-02-22T01:41:19.452Z,57.50
2023-02-22T01:44:31.378Z,57.51
2023-02-22T01:47:34.537Z,57.37
2023-02-22T01:50:42.211Z,57.30
2023-02-22T01:53:47.647Z,57.34
2023-02-22T01:56:57.035Z,57.30
2023-02-22T02:00:10.083Z,57.37
2023-02-22T02:03:27.487Z,57.42
2023-02-22T02:06:33.590Z,57.49
2023-02-22T02:09:37.382Z,57.52
2023-02-22T02:12:42.197Z,57.43
2023-02-22T02:15:44.885Z,57.42
2023-02-22T02:18:46.989Z,57.41
2023-02-22T02:22:07.013Z,57.41
2023-02-22T02:25:31.176Z,57.28
2023-02-22T02:28:54.891Z,57.33
2023-02-22T02:32:28.623Z,57.36
2023-02-22T02:35:47.891Z,57.35
2023-02-22T02:38:59.332Z,57.24
2023-02-22T02:42:07.442Z,57.31
2023-02-22T02:45:17.635Z,57.29
2023-02-22T02:48:23.612Z,57.11
2023-02-22T02:51:40.370Z,57.10
2023-02-22T02:54:43.391Z,57.24
2023-02-22T02:57:45.575Z,57.31
2023-02-22T03:00:50.394Z,57.29
2023-02-22T03:04:03.077Z,57.36
2023-02-22T03:07:20.244Z,57.35
2023-02-22T03:10:38.891Z,57.38
2023-02-22T03:14:02.131Z,57.42
2023-02-22T03:17:12.122Z,57.38
2023-02-22T03:20:32.048Z,57.30
2023-02-22T03:23:55.591Z,57.12
2023-02-22T03:27:23.658Z,57.29
2023-02-22T03:30:33.906Z,57.25
2023-02-22T03:34:08.747Z,57.36
2023-02-22T03:37:34.266Z,57.44
2023-02-22T03:40:46.534Z,57.43
2023-02-22T03:43:54.690Z,57.44
2023-02-22T03:47:02.070Z,57.34
2023-02-22T03:50:52.767Z,57.25
2023-02-22T03:54:04.954Z,57.19
2023-02-22T03:57:22.454Z,57.16
2023-02-22T04:00:32.080Z,57.20
2023-02-22T04:03:34.253Z,57.15
2023-02-22T04:06:37.009Z,57.14
2023-02-22T04:09:39.590Z,57.20
2023-02-22T04:12:41.777Z,57.25
2023-02-22T04:15:43.961Z,57.30
2023-02-22T04:18:47.788Z,57.29
2023-02-22T04:21:53.562Z,57.42
2023-02-22T04:25:00.233Z,57.50
2023-02-22T04:28:03.390Z,57.49
2023-02-22T04:31:14.500Z,57.48
2023-02-22T04:34:16.926Z,57.51
2023-02-22T04:37:19.270Z,57.38
2023-02-22T04:40:21.632Z,57.39
2023-02-22T04:43:23.569Z,57.37
2023-02-22T04:46:28.397Z,57.29
2023-02-22T04:49:30.796Z,57.37
2023-02-22T04:52:33.883Z,57.34
2023-02-22T04:55:35.805Z,57.34
2023-02-22T04:58:38.004Z,57.32
2023-02-22T05:01:40.056Z,57.42
2023-02-22T05:04:42.295Z,57.39
2023-02-22T05:07:44.902Z,57.29
2023-02-22T05:10:47.053Z,57.26
2023-02-22T05:13:49.262Z,57.37
2023-02-22T05:16:51.854Z,57.26
2023-02-22T05:19:53.729Z,57.20
2023-02-22T05:22:56.887Z,57.07
2023-02-22T05:25:58.917Z,57.06
2023-02-22T05:29:01.096Z,56.99
2023-02-22T05:32:03.278Z,56.93
2023-02-22T05:35:06.095Z,56.92
2023-02-22T05:38:08.392Z,56.82
2023-02-22T05:41:12.559Z,56.72
2023-02-22T05:44:14.752Z,56.59
2023-02-22T05:47:16.833Z,56.45
2023-02-22T05:50:19.917Z,56.44
2023-02-22T05:53:23.839Z,56.45
2023-02-22T05:56:28.393Z,56.41
2023-02-22T05:59:30.640Z,56.40
2023-02-22T06:02:33.880Z,56.32
2023-02-22T06:05:37.447Z,56.27
2023-02-22T06:08:39.737Z,56.17
2023-02-22T06:11:41.823Z,56.11
2023-02-22T06:14:46.036Z,56.13
2023-02-22T06:17:48.467Z,56.09
2023-02-22T06:20:50.978Z,56.11
2023-02-22T06:23:53.249Z,56.10
2023-02-22T06:27:00.440Z,56.07
2023-02-22T06:30:03.164Z,56.09
2023-02-22T06:33:05.076Z,56.10
2023-02-22T06:36:08.010Z,56.11
2023-02-22T06:39:12.900Z,56.13
2023-02-22T06:42:15.141Z,56.12
2023-02-22T06:45:18.330Z,56.17
2023-02-22T06:48:20.542Z,56.22
2023-02-22T06:51:22.828Z,56.15
2023-02-22T06:54:25.016Z,56.20
2023-02-22T06:57:26.980Z,56.23
2023-02-22T07:00:32.254Z,56.21
2023-02-22T07:03:35.900Z,56.19
2023-02-22T07:06:38.468Z,56.21
2023-02-22T07:09:40.483Z,56.31
2023-02-22T07:12:42.751Z,56.37
2023-02-22T07:15:44.990Z,56.46
2023-02-22T07:18:50.833Z,56.58
2023-02-22T07:21:59.360Z,56.60
2023-02-22T07:25:01.835Z,56.71
2023-02-22T07:28:04.023Z,57.44
2023-02-22T07:31:06.267Z,57.11
2023-02-22T07:34:08.225Z,56.98
2023-02-22T07:37:10.626Z,56.91
2023-02-22T07:40:12.768Z,56.78
2023-02-22T07:43:24.632Z,56.68
2023-02-22T07:46:27.875Z,56.80
2023-02-22T07:49:30.194Z,56.65
2023-02-22T07:52:32.102Z,56.43
2023-02-22T07:55:35.013Z,56.41
2023-02-22T07:58:37.175Z,56.37
2023-02-22T08:01:40.174Z,56.15
2023-02-22T08:04:42.103Z,56.15
2023-02-22T08:07:44.327Z,56.20
2023-02-22T08:10:46.707Z,56.21
2023-02-22T08:13:48.869Z,56.33
2023-02-22T08:16:50.895Z,56.51
2023-02-22T08:19:53.098Z,56.64
2023-02-22T08:22:56.003Z,56.80
2023-02-22T08:26:04.937Z,56.72
2023-02-22T08:29:07.174Z,56.75
2023-02-22T08:32:09.446Z,56.72
2023-02-22T08:35:14.052Z,56.66
2023-02-22T08:38:23.126Z,56.65
2023-02-22T08:41:25.103Z,56.53
2023-02-22T08:44:27.285Z,56.44
2023-02-22T08:47:29.246Z,56.48
2023-02-22T08:50:35.749Z,56.53
2023-02-22T08:53:38.381Z,56.61
2023-02-22T08:56:40.484Z,56.64
2023-02-22T08:59:42.894Z,56.63
2023-02-22T09:02:45.366Z,56.50
2023-02-22T09:05:47.675Z,56.42
2023-02-22T09:08:50.068Z,56.39
2023-02-22T09:11:53.186Z,56.36
2023-02-22T09:14:55.421Z,56.38
2023-02-22T09:17:57.645Z,56.28
2023-02-22T09:20:59.991Z,56.28
2023-02-22T09:24:08.489Z,56.33
2023-02-22T09:27:12.212Z,56.31
2023-02-22T09:30:26.582Z,56.31
2023-02-22T09:33:28.963Z,56.13
2023-02-22T09:36:30.863Z,56.09
2023-02-22T09:39:37.514Z,55.94
2023-02-22T09:42:45.652Z,55.93
2023-02-22T09:46:19.783Z,55.81
2023-02-22T09:49:29.557Z,55.53
2023-02-22T09:52:40.100Z,55.25
2023-02-22T09:55:53.430Z,55.23
2023-02-22T09:59:00.408Z,55.22
2023-02-22T10:02:26.915Z,55.08
2023-02-22T10:05:38.086Z,54.94
2023-02-22T10:08:41.814Z,54.92
2023-02-22T10:12:11.945Z,54.94
2023-02-22T10:15:16.710Z,55.06
2023-02-22T10:18:34.065Z,54.98
2023-02-22T10:22:00.229Z,54.76
2023-02-22T10:25:05.285Z,54.75
2023-02-22T10:28:18.762Z,54.94
2023-02-22T10:31:28.424Z,54.94
2023-02-22T10:34:41.518Z,55.05
2023-02-22T10:37:44.821Z,55.31
2023-02-22T10:41:09.901Z,55.39
2023-02-22T10:44:12.125Z,55.31
2023-02-22T10:47:17.859Z,55.32
2023-02-22T10:50:21.775Z,55.37
2023-02-22T10:53:23.748Z,55.39
2023-02-22T10:56:27.770Z,55.36
2023-02-22T10:59:35.457Z,55.47
2023-02-22T11:02:37.994Z,55.62
2023-02-22T11:05:41.269Z,55.60
2023-02-22T11:08:44.104Z,55.52
2023-02-22T11:11:48.109Z,55.32
2023-02-22T11:14:50.415Z,55.36
2023-02-22T11:17:55.723Z,55.39
2023-02-22T11:21:11.763Z,55.74
2023-02-22T11:27:41.541Z,55.80
2023-02-22T11:30:46.730Z,55.78
2023-02-22T11:37:38.249Z,55.66
2023-02-22T11:40:48.718Z,55.72
2023-02-22T11:43:51.955Z,55.70
2023-02-22T11:46:57.131Z,55.85
2023-02-22T11:49:59.192Z,55.83
2023-02-22T11:54:22.149Z,55.91
2023-02-22T11:58:08.426Z,55.94
2023-02-22T12:05:40.710Z,55.81
2023-02-22T12:09:04.177Z,55.88
2023-02-22T12:12:18.607Z,55.99
2023-02-22T12:19:19.500Z,55.94
2023-02-22T12:22:38.990Z,55.96
2023-02-22T12:26:11.786Z,55.89
2023-02-22T12:29:27.302Z,55.97
2023-02-22T12:32:59.563Z,55.78
2023-02-22T12:36:02.324Z,55.77
2023-02-22T12:39:29.340Z,55.68
2023-02-22T12:42:50.539Z,55.67
2023-02-22T12:46:26.732Z,55.69
2023-02-22T12:49:49.931Z,55.70
2023-02-22T12:53:00.140Z,55.67
2023-02-22T12:56:32.509Z,55.78
2023-02-22T12:59:57.741Z,56.36
2023-02-22T13:03:13.616Z,56.50
2023-02-22T13:06:18.847Z,56.48
2023-02-22T13:09:56.268Z,56.15
2023-02-22T13:13:26.289Z,56.01
2023-02-22T13:16:53.949Z,55.91
2023-02-22T13:20:14.443Z,55.60
2023-02-22T13:23:55.074Z,55.71
2023-02-22T13:27:04.230Z,55.44
2023-02-22T13:31:07.802Z,55.41
2023-02-22T13:34:26.253Z,55.28
2023-02-22T13:38:19.451Z,55.20
2023-02-22T13:41:32.931Z,55.14
2023-02-22T13:45:08.574Z,55.27
2023-02-22T13:48:24.751Z,55.23
2023-02-22T13:51:46.455Z,54.96
2023-02-22T13:55:00.357Z,54.90
2023-02-22T13:58:11.875Z,55.01
2023-02-22T14:01:41.739Z,55.05
2023-02-22T14:04:44.278Z,55.03
2023-02-22T14:07:49.554Z,55.08
2023-02-22T14:10:55.959Z,55.13
2023-02-22T14:14:01.180Z,55.18
2023-02-22T14:17:20.918Z,55.05
2023-02-22T14:20:35.473Z,54.83
2023-02-22T14:23:40.897Z,55.00
2023-02-22T14:26:59.574Z,54.96
2023-02-22T14:30:01.807Z,54.93
2023-02-22T14:33:44.238Z,55.01
2023-02-22T14:37:01.221Z,54.98
2023-02-22T14:40:20.125Z,55.01
2023-02-22T14:43:36.823Z,55.00
2023-02-22T14:46:55.087Z,54.98
2023-02-22T14:50:33.212Z,55.09
2023-02-22T14:53:46.775Z,55.12
2023-02-22T14:57:15.124Z,55.20
2023-02-22T15:00:30.894Z,55.40
2023-02-22T15:03:38.220Z,56.15
2023-02-22T15:06:40.689Z,56.07
2023-02-22T15:09:47.198Z,56.02
2023-02-22T15:13:10.802Z,55.85
2023-02-22T15:16:15.786Z,55.84
2023-02-22T15:19:27.177Z,55.68
2023-02-22T15:22:36.112Z,55.72
2023-02-22T15:25:39.435Z,55.82
2023-02-22T15:28:42.809Z,55.83
2023-02-22T15:31:49.968Z,55.69
2023-02-22T15:34:52.128Z,55.45
2023-02-22T15:38:16.556Z,55.39
2023-02-22T15:41:31.629Z,55.38
2023-02-22T15:44:42.476Z,55.19
2023-02-22T15:47:44.607Z,55.18
2023-02-22T15:51:09.423Z,55.07
2023-02-22T15:54:26.641Z,55.10
2023-02-22T15:57:30.720Z,55.05
2023-02-22T16:00:40.317Z,54.92
2023-02-22T16:03:51.579Z,54.88
2023-02-22T16:07:04.913Z,54.70
2023-02-22T16:10:09.417Z,54.72
2023-02-22T16:13:31.468Z,54.69
2023-02-22T16:16:37.359Z,54.55
2023-02-22T16:19:44.916Z,54.61
2023-02-22T16:22:49.803Z,54.95
2023-02-22T16:26:07.920Z,54.78
2023-02-22T16:29:25.000Z,54.61
2023-02-22T16:32:27.408Z,54.60
2023-02-22T16:35:30.178Z,54.53
2023-02-22T16:38:33.820Z,54.26
2023-02-22T16:41:36.951Z,54.26
2023-02-22T16:44:39.314Z,54.24
2023-02-22T16:47:47.144Z,54.23
2023-02-22T16:50:54.328Z,54.24
2023-02-22T16:53:57.309Z,54.26
2023-02-22T16:57:02.813Z,54.36
2023-02-22T17:00:10.456Z,54.13
2023-02-22T17:03:20.986Z,53.95
2023-02-22T17:06:23.731Z,53.98
2023-02-22T17:09:26.462Z,53.99
2023-02-22T17:12:32.438Z,54.03
2023-02-22T17:15:37.212Z,53.77
2023-02-22T17:18:40.283Z,53.73
2023-02-22T17:21:42.385Z,53.62
2023-02-22T17:25:00.012Z,53.72
2023-02-22T17:28:02.222Z,53.85
2023-02-22T17:31:05.663Z,54.01
2023-02-22T17:34:08.545Z,53.96
2023-02-22T17:37:10.964Z,53.73
2023-02-22T17:40:15.083Z,53.77
2023-02-22T17:43:19.485Z,53.91
2023-02-22T17:46:22.056Z,53.98
2023-02-22T17:49:24.477Z,54.01
2023-02-22T17:52:30.622Z,54.06
2023-02-22T17:55:38.339Z,54.11
2023-02-22T17:58:41.455Z,54.06
2023-02-22T18:01:44.560Z,54.15
2023-02-22T18:04:48.452Z,54.16
2023-02-22T18:07:51.456Z,54.22
2023-02-22T18:10:56.812Z,54.29
2023-02-22T18:13:59.996Z,54.35
2023-02-22T18:17:02.576Z,54.52
2023-02-22T18:20:15.535Z,54.56
2023-02-22T18:23:21.300Z,54.52
2023-02-22T18:26:25.543Z,54.55
2023-02-22T18:29:29.072Z,54.64
2023-02-22T18:32:32.077Z,54.60
2023-02-22T18:35:34.630Z,54.69
2023-02-22T18:38:44.013Z,54.75
2023-02-22T18:41:48.793Z,54.70
2023-02-22T18:44:53.068Z,54.80
2023-02-22T18:47:55.208Z,54.80
2023-02-22T18:51:01.528Z,54.83
2023-02-22T18:54:13.176Z,54.74
2023-02-22T18:57:17.298Z,54.82
2023-02-22T19:00:28.971Z,54.84
2023-02-22T19:03:38.477Z,54.93
2023-02-22T19:06:48.340Z,55.03
2023-02-22T19:09:51.945Z,55.03
2023-02-22T19:12:58.397Z,54.92
2023-02-22T19:16:10.502Z,54.91
2023-02-22T19:19:15.015Z,54.95
2023-02-22T19:22:17.310Z,54.99
2023-02-22T19:25:19.377Z,55.06
2023-02-22T19:28:28.872Z,54.90
2023-02-22T19:31:34.090Z,54.98
2023-02-22T19:34:37.817Z,55.03
2023-02-22T19:37:42.183Z,55.07
2023-02-22T19:41:16.278Z,55.06
2023-02-22T19:44:29.616Z,55.16
2023-02-22T19:47:34.841Z,55.40
2023-02-22T19:50:48.740Z,55.61
2023-02-22T19:53:52.148Z,56.27
2023-02-22T19:56:58.846Z,55.95
2023-02-22T20:00:10.852Z,55.75
2023-02-22T20:03:15.690Z,55.76
2023-02-22T20:06:18.133Z,55.85
2023-02-22T20:09:40.419Z,55.84
2023-02-22T20:12:45.651Z,55.74
2023-02-22T20:15:50.824Z,55.73
2023-02-22T20:18:54.937Z,55.99
2023-02-22T20:21:57.617Z,56.02
2023-02-22T20:25:00.353Z,56.42
2023-02-22T20:28:02.593Z,56.51
2023-02-22T20:31:11.367Z,56.48
2023-02-22T20:34:13.789Z,56.24
2023-02-22T20:37:16.393Z,56.11
2023-02-22T20:40:18.880Z,56.21
2023-02-22T20:43:21.998Z,56.05
2023-02-22T20:46:25.377Z,56.06
2023-02-22T20:49:28.834Z,56.04
2023-02-22T20:52:31.501Z,56.05
2023-02-22T20:55:34.288Z,56.10
2023-02-22T20:58:36.458Z,56.19
2023-02-22T21:01:39.945Z,56.15
2023-02-22T21:04:42.191Z,56.07
2023-02-22T21:07:45.090Z,56.07
2023-02-22T21:10:48.403Z,56.06
2023-02-22T21:13:52.092Z,56.04
2023-02-22T21:16:54.397Z,55.93
2023-02-22T21:19:59.039Z,56.07
2023-02-22T21:23:03.299Z,56.18
2023-02-22T21:26:07.387Z,55.66
2023-02-22T21:29:10.806Z,55.92
2023-02-22T21:32:14.574Z,56.72
2023-02-22T21:35:16.839Z,55.70
2023-02-22T21:38:21.023Z,62.48
2023-02-22T21:41:27.961Z,65.37
2023-02-22T21:44:30.707Z,66.22
2023-02-22T21:47:35.940Z,60.67
2023-02-22T21:50:38.412Z,65.69
2023-02-22T21:53:48.219Z,68.80
2023-02-22T21:56:50.970Z,71.50
2023-02-22T21:59:53.468Z,74.58
2023-02-22T22:03:09.888Z,76.14
2023-02-22T22:06:13.720Z,78.01
2023-02-22T22:09:19.695Z,77.87
2023-02-22T22:12:25.969Z,73.39
2023-02-22T22:15:42.758Z,66.77
2023-02-22T22:18:47.292Z,62.61
2023-02-22T22:21:53.514Z,60.17
2023-02-22T22:24:55.787Z,58.94
2023-02-22T22:27:58.145Z,57.81
2023-02-22T22:31:00.231Z,57.21
2023-02-22T22:34:02.899Z,56.86
2023-02-22T22:37:05.116Z,56.69
2023-02-22T22:40:15.880Z,56.47
2023-02-22T22:43:18.318Z,56.52
2023-02-22T22:46:21.684Z,56.41
2023-02-22T22:49:26.142Z,56.32
2023-02-22T22:52:31.558Z,56.25
2023-02-22T22:55:33.559Z,56.22
2023-02-22T22:58:36.869Z,56.09
2023-02-22T23:01:44.713Z,56.04
2023-02-22T23:04:52.130Z,55.96
2023-02-22T23:07:56.559Z,56.07
2023-02-22T23:10:59.097Z,56.04
2023-02-22T23:14:04.863Z,55.90
2023-02-22T23:17:14.270Z,55.76
2023-02-22T23:20:17.314Z,55.46
2023-02-22T23:23:20.168Z,58.19
2023-02-22T23:26:26.950Z,57.18
2023-02-22T23:29:32.444Z,56.52
2023-02-22T23:32:35.268Z,56.26
2023-02-22T23:35:38.710Z,56.05
2023-02-22T23:38:42.571Z,55.91
2023-02-22T23:41:45.502Z,55.75
2023-02-22T23:44:48.179Z,55.68
2023-02-22T23:47:57.448Z,55.69
2023-02-22T23:50:59.903Z,55.63
2023-02-22T23:54:02.471Z,55.53
2023-02-22T23:57:06.417Z,55.66
